EST,Max TemperatureF,Mean TemperatureF,Min TemperatureF,Max Dew PointF,MeanDew PointF,Min DewpointF,Max Humidity, Mean Humidity, Min Humidity, Max Sea Level PressureIn, Mean Sea Level PressureIn, Min Sea Level PressureIn, Max VisibilityMiles, Mean VisibilityMiles, Min VisibilityMiles, Max Wind SpeedMPH, Mean Wind SpeedMPH, Max Gust SpeedMPH,PrecipitationIn, CloudCover, Events, WindDirDegrees
2013-1-1,34,15,-5,27,11,-7,87,65,42,30.01,29.87,29.72,10,9,3,25,7,32,T,5,Snow,296
2013-1-2,25,8,-9,15,2,-13,90,70,49,30.29,30.06,29.95,10,8,2,18,5,22,T,5,Snow,55
2013-1-3,13,-2,-18,6,-8,-22,87,75,63,30.31,30.20,30.01,10,10,7,9,2,13,T,5,Snow,174
2013-1-4,35,24,12,22,17,7,88,69,54,29.99,29.91,29.84,10,9,4,13,6,22,0.00,8,Snow,208
2013-1-5,37,25,12,24,16,9,80,59,38,30.26,30.14,29.89,10,10,10,18,6,25,T,3,,339
2013-1-6,35,25,14,29,22,12,92,81,69,30.19,30.02,29.94,10,8,2,12,4,14,T,7,Snow,178
2013-1-7,31,18,4,26,16,3,92,77,62,30.41,30.27,29.96,10,9,3,15,5,18,0.00,4,,94
2013-1-8,35,18,1,22,11,-3,92,79,59,30.40,30.34,30.30,9,7,6,12,2,17,0.00,0,,178
2013-1-9,44,24,3,31,13,0,92,71,49,30.40,30.26,30.01,10,5,0,17,4,25,T,4,Fog-Rain,209
2013-1-10,43,30,16,27,20,15,91,66,41,30.60,30.45,30.17,10,10,10,25,7,40,T,2,,318
2013-1-11,34,24,14,32,25,12,92,78,64,30.56,30.28,30.13,10,6,1,6,1,8,0.10,6,Rain,131
2013-1-12,41,36,32,40,36,30,100,98,92,30.17,30.12,30.08,5,1,0,7,2,,0.00,8,Fog,188
2013-1-13,44,39,34,43,39,34,100,96,92,30.15,30.03,29.93,5,1,0,10,3,15,0.00,8,Fog,215
2013-1-14,49,40,30,43,34,20,100,73,45,30.33,30.06,29.86,10,6,0,17,7,23,0.00,3,Fog,238
2013-1-15,36,30,23,24,22,19,92,74,56,30.36,30.31,30.26,10,10,10,9,2,12,0.00,3,,48
2013-1-16,30,29,27,28,26,23,100,89,78,30.24,29.97,29.82,10,3,0,9,2,14,0.12,8,Fog-Snow,170
2013-1-17,36,24,12,29,19,2,100,68,36,30.18,30.01,29.84,10,8,2,20,8,28,T,7,Snow,215
2013-1-18,23,12,0,7,0,-4,95,63,31,30.43,30.35,30.18,10,10,10,15,5,18,0.00,2,,165
2013-1-19,39,29,18,25,17,8,78,63,48,30.27,30.03,29.77,10,10,10,15,6,22,0.00,7,,208
2013-1-20,42,31,19,32,18,1,75,57,38,30.03,29.75,29.50,10,10,2,29,11,41,0.01,5,Rain-Snow,252
2013-1-21,22,17,12,16,10,0,92,69,45,30.09,29.94,29.79,10,6,2,12,5,15,T,7,Snow,110
2013-1-22,18,10,1,9,1,-10,92,66,39,30.14,29.93,29.79,10,8,0,20,6,25,T,5,Fog-Snow,275
2013-1-23,11,3,-6,-11,-15,-20,65,46,26,30.23,30.19,30.10,10,10,10,15,5,21,0.00,0,,293
2013-1-24,17,3,-11,-8,-12,-16,83,54,25,30.41,30.28,30.21,10,10,10,16,4,23,0.00,0,,315
2013-1-25,13,4,-6,7,-3,-11,83,63,42,30.45,30.26,30.10,10,7,2,12,3,15,T,4,Snow,7
2013-1-26,18,8,-2,6,-1,-6,88,63,37,30.36,30.18,30.07,10,8,2,17,2,24,T,4,Snow,336
2013-1-27,24,10,-5,4,-1,-8,87,63,39,30.55,30.49,30.38,10,10,10,8,2,12,0.00,1,,151
2013-1-28,23,16,9,20,14,5,92,80,67,30.51,30.18,29.97,10,3,0,6,1,8,0.23,8,Fog-Rain-Snow,346
2013-1-29,32,27,22,30,25,19,100,92,84,30.18,30.07,29.99,10,4,2,8,1,10,0.04,8,Rain-Snow,9
2013-1-30,53,43,32,52,45,30,100,96,92,30.01,29.58,29.31,4,2,0,10,4,13,0.24,8,Fog-Rain,222
2013-1-31,53,40,26,52,38,7,100,70,39,29.60,29.16,28.89,10,5,0,30,11,45,0.54,7,Fog-Rain,219